Time;durP1;ratioP1;P1;durP2;ratioP2;P2;SDS_P1;SDS_P2;PMS_P1;PMS_P2;Temp;Humidity;BMP_temperature;BMP_pressure;BME280_temperature;BME280_humidity;BME280_pressure;Samples;Min_cycle;Max_cycle;Signal;HPM_P1;HPM_P2
2023/02/16 00:01:28;;;;;;;8.63;4.40;;;1.40;98.00;;;;;;5031383;28;20483;-66
2023/02/16 00:03:58;;;;;;;8.20;4.43;;;1.40;98.00;;;;;;5030198;28;21028;-65
2023/02/16 00:06:34;;;;;;;9.33;5.30;;;1.40;98.00;;;;;;5031543;28;20799;-65
2023/02/16 00:09:03;;;;;;;4.93;3.10;;;1.40;98.00;;;;;;5031028;28;20844;-65
2023/02/16 00:14:22;;;;;;;7.13;4.40;;;1.60;98.00;;;;;;5031448;28;20454;-66
2023/02/16 00:16:50;;;;;;;3.00;2.10;;;1.50;98.00;;;;;;5031456;28;20942;-65
2023/02/16 00:19:22;;;;;;;8.10;3.07;;;1.50;98.00;;;;;;5031420;28;20553;-65
2023/02/16 00:21:54;;;;;;;4.20;3.23;;;1.50;98.00;;;;;;5031353;28;20495;-65
2023/02/16 00:24:25;;;;;;;7.00;3.33;;;1.60;98.00;;;;;;5031581;28;20494;-65
2023/02/16 00:26:57;;;;;;;6.50;3.20;;;1.60;98.00;;;;;;5029963;28;20491;-66
2023/02/16 00:29:30;;;;;;;8.43;3.67;;;1.50;98.00;;;;;;5031434;28;20615;-65
2023/02/16 00:31:59;;;;;;;10.80;4.73;;;1.30;98.00;;;;;;5031440;28;20460;-65
2023/02/16 00:34:34;;;;;;;8.23;3.70;;;1.10;98.00;;;;;;5031367;28;20463;-65
2023/02/16 00:37:06;;;;;;;6.80;3.60;;;1.10;98.00;;;;;;5033836;28;20493;-65
2023/02/16 00:39:36;;;;;;;5.20;3.07;;;1.30;98.00;;;;;;5033766;28;20608;-65
2023/02/16 00:42:06;;;;;;;9.13;3.80;;;1.40;98.00;;;;;;5034653;28;20498;-65
2023/02/16 00:44:37;;;;;;;6.73;3.57;;;1.60;98.00;;;;;;5034594;28;20518;-65
2023/02/16 00:47:18;;;;;;;7.80;4.30;;;1.70;98.00;;;;;;5034481;28;20479;-65
2023/02/16 00:49:47;;;;;;;6.20;4.00;;;1.70;98.00;;;;;;5034646;28;20458;-65
2023/02/16 00:52:34;;;;;;;6.87;4.17;;;1.70;98.00;;;;;;5034362;28;20467;-65
2023/02/16 00:55:04;;;;;;;4.80;3.20;;;1.70;98.00;;;;;;5034438;28;20466;-65
2023/02/16 00:57:37;;;;;;;4.77;2.67;;;1.80;98.00;;;;;;5034350;28;20818;-65
2023/02/16 01:00:14;;;;;;;8.13;5.10;;;1.80;98.00;;;;;;5034447;28;20464;-65
2023/02/16 01:02:43;;;;;;;6.83;3.60;;;1.70;98.00;;;;;;5034647;28;20469;-65
2023/02/16 01:05:12;;;;;;;8.60;4.13;;;1.50;98.00;;;;;;5034245;28;20509;-65
2023/02/16 01:13:16;;;;;;;5.77;3.27;;;1.00;98.00;;;;;;5034337;28;20807;-65
2023/02/16 01:15:45;;;;;;;4.30;2.90;;;1.00;98.00;;;;;;5033067;28;20537;-65
2023/02/16 01:18:18;;;;;;;8.30;3.97;;;1.00;98.00;;;;;;5034183;28;20454;-65
2023/02/16 01:20:53;;;;;;;6.70;3.40;;;1.00;98.00;;;;;;5032850;28;20487;-65
2023/02/16 01:23:26;;;;;;;6.50;3.90;;;1.10;98.00;;;;;;5034271;28;20454;-65
2023/02/16 01:26:06;;;;;;;16.10;3.83;;;1.00;98.00;;;;;;5033861;28;20504;-65
2023/02/16 01:28:36;;;;;;;10.70;4.87;;;1.00;98.00;;;;;;5033680;28;20501;-65
2023/02/16 01:31:07;;;;;;;7.83;4.10;;;0.90;98.00;;;;;;5034130;28;20486;-65
2023/02/16 01:33:35;;;;;;;4.70;2.77;;;0.80;98.00;;;;;;5034040;28;20459;-65
2023/02/16 01:36:05;;;;;;;5.33;3.83;;;0.60;98.00;;;;;;5032527;28;20459;-65
2023/02/16 01:38:36;;;;;;;5.83;3.37;;;0.70;98.00;;;;;;5033814;28;20477;-65
2023/02/16 01:41:21;;;;;;;8.63;3.83;;;0.70;98.00;;;;;;5032809;28;20462;-65
2023/02/16 01:43:55;;;;;;;5.73;3.13;;;0.70;98.00;;;;;;5033662;28;20455;-65
2023/02/16 01:46:29;;;;;;;8.80;3.80;;;0.80;98.00;;;;;;5033521;28;20462;-65
2023/02/16 01:48:57;;;;;;;5.20;2.70;;;0.80;98.00;;;;;;5031214;28;20493;-65
2023/02/16 01:51:36;;;;;;;3.77;2.50;;;0.80;98.00;;;;;;5033347;28;20458;-65
2023/02/16 01:54:15;;;;;;;4.67;3.10;;;0.80;98.00;;;;;;5032263;28;20553;-65
2023/02/16 01:56:50;;;;;;;7.97;3.90;;;0.60;98.00;;;;;;5033253;28;20467;-65
2023/02/16 01:59:28;;;;;;;6.83;3.53;;;0.70;98.00;;;;;;5032010;28;20532;-65
2023/02/16 02:02:01;;;;;;;8.53;3.03;;;0.90;98.00;;;;;;5033134;28;20478;-65
2023/02/16 02:07:30;;;;;;;14.20;4.57;;;0.90;98.00;;;;;;5033182;28;20442;-65
2023/02/16 02:10:07;;;;;;;5.43;3.50;;;0.90;98.00;;;;;;5032941;28;20522;-65
2023/02/16 02:12:45;;;;;;;8.50;3.57;;;1.00;98.00;;;;;;5033092;28;20936;-65
2023/02/16 02:15:18;;;;;;;4.33;3.27;;;0.90;98.00;;;;;;5031827;28;20482;-65
2023/02/16 02:17:46;;;;;;;8.70;3.93;;;0.80;98.00;;;;;;5033301;28;21001;-65
2023/02/16 02:20:21;;;;;;;6.57;3.73;;;0.80;98.00;;;;;;5033223;28;20454;-65
2023/02/16 02:23:30;;;;;;;8.60;4.63;;;0.90;98.00;;;;;;5033084;28;20935;-65
2023/02/16 02:26:47;;;;;;;5.30;3.20;;;0.90;98.00;;;;;;5032710;28;21004;-65
2023/02/16 02:29:52;;;;;;;5.67;3.87;;;1.00;98.00;;;;;;5033036;28;20478;-65
2023/02/16 02:32:35;;;;;;;6.63;4.00;;;1.00;98.00;;;;;;4971583;28;20465;-65
2023/02/16 02:35:17;;;;;;;5.13;3.50;;;1.00;98.00;;;;;;5025205;28;20564;-65
2023/02/16 02:37:54;;;;;;;7.03;3.43;;;1.20;98.00;;;;;;5031346;28;20509;-65
2023/02/16 02:40:36;;;;;;;11.17;4.40;;;1.10;98.00;;;;;;5032500;28;20903;-65
2023/02/16 02:43:13;;;;;;;8.63;3.10;;;1.10;98.00;;;;;;5032225;28;20558;-65
2023/02/16 02:45:47;;;;;;;6.30;3.00;;;1.00;98.00;;;;;;5032015;28;20881;-65
2023/02/16 02:48:16;;;;;;;8.47;3.90;;;0.80;98.00;;;;;;5032265;28;20861;-65
2023/02/16 02:53:41;;;;;;;9.20;4.13;;;0.40;98.00;;;;;;5032148;28;20866;-65
2023/02/16 03:01:57;;;;;;;6.80;3.33;;;0.50;98.00;;;;;;5032174;28;20482;-65
2023/02/16 03:04:29;;;;;;;2.67;2.50;;;0.30;98.00;;;;;;5030649;28;20458;-65
2023/02/16 03:06:59;;;;;;;2.57;2.47;;;0.30;98.00;;;;;;5030549;28;20992;-65
2023/02/16 03:09:28;;;;;;;8.97;3.87;;;0.30;98.00;;;;;;5030658;28;20474;-65
2023/02/16 03:14:56;;;;;;;5.70;3.67;;;0.40;98.00;;;;;;5007207;28;20485;-65
2023/02/16 03:31:31;;;;;;;5.63;4.00;;;0.70;98.00;;;;;;5030785;28;20443;-65
2023/02/16 03:34:03;;;;;;;5.67;3.03;;;0.50;98.00;;;;;;5031760;28;20459;-64
2023/02/16 03:36:36;;;;;;;3.57;2.53;;;0.30;98.00;;;;;;5031506;28;20493;-65
2023/02/16 03:39:06;;;;;;;9.70;4.00;;;0.10;98.00;;;;;;5031566;28;20524;-65
2023/02/16 03:41:42;;;;;;;8.63;3.90;;;0.20;98.00;;;;;;5031518;28;20470;-65
2023/02/16 03:44:10;;;;;;;4.13;2.77;;;0.40;98.00;;;;;;5031591;28;20524;-65
2023/02/16 03:46:39;;;;;;;5.70;3.47;;;0.40;98.00;;;;;;5031223;28;20485;-65
2023/02/16 03:49:10;;;;;;;4.00;2.60;;;0.40;98.00;;;;;;5030875;28;20461;-65
2023/02/16 03:51:41;;;;;;;6.33;3.33;;;0.60;98.00;;;;;;5031428;28;20520;-65
2023/02/16 03:54:11;;;;;;;5.97;3.33;;;0.60;98.00;;;;;;5031427;28;20525;-65
2023/02/16 03:56:42;;;;;;;3.00;2.70;;;0.70;98.00;;;;;;5013873;28;20463;-65
2023/02/16 03:59:11;;;;;;;6.30;3.73;;;0.60;98.00;;;;;;5031455;28;20458;-65
2023/02/16 04:01:41;;;;;;;8.17;4.20;;;0.40;98.00;;;;;;5031471;28;20494;-65
2023/02/16 04:04:13;;;;;;;4.83;2.43;;;0.40;98.00;;;;;;5031407;28;20590;-65
2023/02/16 04:06:41;;;;;;;13.33;4.00;;;0.50;98.00;;;;;;5031348;28;20518;-65
2023/02/16 04:09:12;;;;;;;11.53;3.13;;;0.50;98.00;;;;;;5031446;28;20479;-65
2023/02/16 04:14:31;;;;;;;6.67;3.70;;;0.30;98.00;;;;;;5035573;28;20448;-65
2023/02/16 04:17:02;;;;;;;6.77;3.80;;;0.10;98.00;;;;;;5033915;28;20497;-64
2023/02/16 04:19:34;;;;;;;6.43;4.17;;;0.00;98.00;;;;;;5035423;28;20461;-64
2023/02/16 04:22:02;;;;;;;6.37;3.00;;;0.10;98.00;;;;;;5035271;28;20528;-65
2023/02/16 04:24:32;;;;;;;8.90;3.57;;;0.00;98.00;;;;;;5034215;28;20467;-65
2023/02/16 04:27:04;;;;;;;9.53;4.63;;;0.00;98.00;;;;;;5035172;28;20481;-65
2023/02/16 04:29:32;;;;;;;5.30;3.50;;;0.10;98.00;;;;;;5035125;28;20469;-65
2023/02/16 04:32:01;;;;;;;2.47;2.27;;;0.10;98.00;;;;;;5034916;28;20454;-64
2023/02/16 04:34:31;;;;;;;4.43;3.33;;;0.10;98.00;;;;;;5034830;28;20465;-65
2023/02/16 04:37:02;;;;;;;9.60;3.97;;;0.40;98.00;;;;;;5034816;28;20459;-64
2023/02/16 04:39:30;;;;;;;5.50;3.37;;;0.40;98.00;;;;;;5034176;28;20469;-64
2023/02/16 04:41:58;;;;;;;3.27;2.87;;;0.30;98.00;;;;;;5034913;28;20539;-65
2023/02/16 04:44:26;;;;;;;8.73;3.93;;;0.40;98.00;;;;;;5033539;28;20462;-65
2023/02/16 04:46:54;;;;;;;7.23;3.50;;;0.60;98.00;;;;;;5034448;28;20490;-64
2023/02/16 04:49:22;;;;;;;7.03;3.37;;;0.50;98.00;;;;;;5034756;28;20463;-65
2023/02/16 04:51:51;;;;;;;26.83;4.50;;;0.60;98.00;;;;;;5034347;28;20454;-65
2023/02/16 04:54:20;;;;;;;6.70;2.83;;;0.30;98.00;;;;;;5034676;28;20501;-65
2023/02/16 04:56:49;;;;;;;7.27;4.13;;;0.30;98.00;;;;;;5034116;28;20493;-65
2023/02/16 04:59:18;;;;;;;4.20;3.30;;;0.30;98.00;;;;;;5034587;28;20469;-64
2023/02/16 05:01:47;;;;;;;4.13;3.40;;;0.20;98.00;;;;;;5034500;28;20635;-65
2023/02/16 05:04:15;;;;;;;8.20;4.83;;;0.20;98.00;;;;;;5034391;28;20470;-65
2023/02/16 05:06:42;;;;;;;9.60;3.97;;;0.00;98.00;;;;;;5034238;28;20544;-64
2023/02/16 05:09:11;;;;;;;12.17;4.50;;;0.00;98.00;;;;;;5033834;28;20485;-65
2023/02/16 05:14:44;;;;;;;6.37;4.10;;;0.00;98.00;;;;;;5034653;28;20449;-65
2023/02/16 05:17:14;;;;;;;7.50;4.27;;;0.20;98.00;;;;;;5034371;28;20458;-65
2023/02/16 05:19:42;;;;;;;13.10;3.93;;;0.20;98.00;;;;;;5034398;28;20470;-64
2023/02/16 05:22:10;;;;;;;8.87;3.57;;;0.20;98.00;;;;;;5034331;28;20984;-65
2023/02/16 05:24:39;;;;;;;10.20;3.43;;;0.20;98.00;;;;;;5034561;28;20462;-65
2023/02/16 05:27:08;;;;;;;5.33;3.47;;;0.00;98.00;;;;;;5034125;28;20489;-65
2023/02/16 05:29:36;;;;;;;7.60;3.53;;;-0.10;98.00;;;;;;5034198;28;20948;-65
2023/02/16 05:32:03;;;;;;;6.83;3.57;;;-0.20;98.00;;;;;;5033562;28;20461;-64
2023/02/16 05:34:31;;;;;;;7.03;4.20;;;-0.10;98.00;;;;;;5034006;28;20490;-65
2023/02/16 05:36:58;;;;;;;4.43;3.17;;;-0.20;98.00;;;;;;5033611;28;20944;-65
2023/02/16 05:39:25;;;;;;;7.13;3.10;;;-0.20;98.00;;;;;;5032375;28;20466;-65
2023/02/16 05:41:53;;;;;;;3.27;3.07;;;-0.30;98.00;;;;;;5033440;28;20868;-64
2023/02/16 05:44:20;;;;;;;7.83;4.67;;;-0.30;98.00;;;;;;5034201;28;20470;-64
2023/02/16 05:46:47;;;;;;;4.43;3.70;;;-0.30;98.00;;;;;;5033702;28;20493;-65
2023/02/16 05:49:16;;;;;;;7.33;3.60;;;-0.30;98.00;;;;;;5033516;28;20560;-65
2023/02/16 05:51:46;;;;;;;4.30;2.60;;;-0.20;98.00;;;;;;5033615;28;20465;-64
2023/02/16 05:54:16;;;;;;;5.27;3.63;;;-0.40;98.00;;;;;;5033438;28;20454;-65
2023/02/16 05:56:45;;;;;;;7.63;3.77;;;-0.30;98.00;;;;;;5033445;28;20497;-65
2023/02/16 05:59:16;;;;;;;7.87;3.37;;;0.00;98.00;;;;;;5033407;28;20467;-64
2023/02/16 06:01:44;;;;;;;5.90;3.53;;;0.00;98.00;;;;;;5033329;28;20505;-65
2023/02/16 06:04:13;;;;;;;5.40;3.37;;;-0.10;98.00;;;;;;5033358;28;20461;-64
2023/02/16 06:06:41;;;;;;;12.13;4.53;;;-0.20;98.00;;;;;;5033315;28;20569;-65
2023/02/16 06:09:09;;;;;;;2.77;2.43;;;-0.30;98.00;;;;;;5033166;28;20468;-64
2023/02/16 06:11:36;;;;;;;7.40;3.00;;;-0.30;98.00;;;;;;5033351;28;20465;-64
2023/02/16 06:14:05;;;;;;;6.57;4.40;;;-0.20;98.00;;;;;;5033419;28;20462;-64
2023/02/16 06:16:35;;;;;;;5.20;3.50;;;-0.30;98.00;;;;;;5033328;28;20458;-65
2023/02/16 06:19:02;;;;;;;5.10;3.13;;;-0.10;98.00;;;;;;5033288;28;20466;-64
2023/02/16 06:21:30;;;;;;;6.30;4.10;;;-0.30;98.00;;;;;;5033349;28;20462;-64
2023/02/16 06:23:57;;;;;;;5.57;4.03;;;-0.40;98.00;;;;;;5033142;28;20465;-64
2023/02/16 06:26:25;;;;;;;15.10;4.80;;;-0.30;98.00;;;;;;5032932;28;20485;-65
2023/02/16 06:28:52;;;;;;;4.60;3.27;;;-0.30;98.00;;;;;;5032726;28;20520;-64
2023/02/16 06:31:20;;;;;;;7.23;2.90;;;-0.20;98.00;;;;;;5032770;28;20496;-65
2023/02/16 06:33:49;;;;;;;6.03;3.30;;;-0.30;98.00;;;;;;5032272;28;20457;-64
2023/02/16 06:36:16;;;;;;;4.13;2.60;;;-0.30;98.00;;;;;;5032562;28;20543;-64
2023/02/16 06:38:44;;;;;;;5.10;3.00;;;-0.20;98.00;;;;;;5032811;28;20865;-64
2023/02/16 06:41:12;;;;;;;3.83;3.27;;;-0.30;98.00;;;;;;5032330;28;20461;-64
2023/02/16 06:43:39;;;;;;;4.53;2.73;;;-0.30;98.00;;;;;;5032537;28;20959;-64
2023/02/16 06:46:06;;;;;;;7.47;3.73;;;-0.40;98.00;;;;;;5032316;28;20493;-63
2023/02/16 06:48:33;;;;;;;3.83;2.50;;;-0.40;98.00;;;;;;5032575;28;20541;-63
2023/02/16 06:51:02;;;;;;;6.73;4.03;;;-0.40;98.00;;;;;;5032372;28;20490;-63
2023/02/16 06:53:29;;;;;;;6.37;3.27;;;-0.40;98.00;;;;;;5032327;28;20461;-63
2023/02/16 06:55:56;;;;;;;3.43;2.57;;;-0.40;98.00;;;;;;5032176;28;20468;-63
2023/02/16 06:58:23;;;;;;;5.97;3.30;;;-0.40;98.00;;;;;;5032385;28;20963;-63
2023/02/16 07:00:50;;;;;;;4.73;3.07;;;-0.30;98.00;;;;;;5031032;28;20528;-64
2023/02/16 07:03:17;;;;;;;6.80;3.90;;;-0.40;98.00;;;;;;5032245;28;20458;-74
2023/02/16 07:05:44;;;;;;;8.20;4.10;;;-0.20;98.00;;;;;;5032134;28;20492;-74
2023/02/16 07:08:13;;;;;;;15.30;5.80;;;-0.30;98.00;;;;;;5032308;28;20508;-73
2023/02/16 07:10:44;;;;;;;2.93;2.40;;;-0.30;98.00;;;;;;5032210;28;20968;-74
2023/02/16 07:13:12;;;;;;;6.00;3.10;;;-0.20;98.00;;;;;;5032408;28;20511;-74
2023/02/16 07:15:39;;;;;;;7.40;2.90;;;-0.20;98.00;;;;;;5032246;28;20470;-74
2023/02/16 07:18:06;;;;;;;4.90;2.93;;;-0.20;98.00;;;;;;5031938;28;20462;-74
2023/02/16 07:20:34;;;;;;;4.00;3.00;;;-0.10;98.00;;;;;;5032616;28;20474;-74
2023/02/16 07:23:02;;;;;;;6.73;3.47;;;-0.10;98.00;;;;;;5032157;28;20467;-74
2023/02/16 07:25:31;;;;;;;7.27;3.63;;;-0.10;98.00;;;;;;5032178;28;20454;-74
2023/02/16 07:27:58;;;;;;;4.90;2.43;;;-0.10;98.00;;;;;;5031589;28;20454;-74
2023/02/16 07:30:25;;;;;;;5.17;3.40;;;-0.20;98.00;;;;;;5032071;28;20826;-73
2023/02/16 07:32:52;;;;;;;9.27;4.00;;;-0.10;98.00;;;;;;5031460;28;20463;-74
2023/02/16 07:35:21;;;;;;;3.00;2.13;;;0.00;98.00;;;;;;5031736;28;20465;-74
2023/02/16 07:37:48;;;;;;;5.10;3.40;;;0.10;98.00;;;;;;5031598;28;20458;-73
2023/02/16 07:40:17;;;;;;;7.60;3.53;;;0.00;98.00;;;;;;5032258;28;20450;-68
2023/02/16 07:42:46;;;;;;;10.77;4.47;;;0.00;98.00;;;;;;5031996;28;20571;-67
2023/02/16 07:45:13;;;;;;;11.33;4.80;;;0.00;98.00;;;;;;5031585;28;20464;-71
2023/02/16 07:47:40;;;;;;;10.87;5.37;;;0.10;98.00;;;;;;5035462;28;20493;-73
2023/02/16 07:50:08;;;;;;;7.80;4.10;;;0.20;98.00;;;;;;5034512;28;20797;-72
2023/02/16 07:52:36;;;;;;;5.20;3.73;;;0.20;98.00;;;;;;5035778;28;20832;-73
2023/02/16 07:55:04;;;;;;;6.97;3.30;;;0.10;98.00;;;;;;5035582;28;20469;-72
2023/02/16 07:57:32;;;;;;;6.37;4.10;;;0.20;98.00;;;;;;5035687;28;20494;-73
2023/02/16 08:00:02;;;;;;;3.90;2.80;;;0.30;98.00;;;;;;5035330;28;20455;-71
2023/02/16 08:02:30;;;;;;;9.33;4.10;;;0.40;98.00;;;;;;5035762;28;20512;-70
2023/02/16 08:04:57;;;;;;;10.77;4.90;;;0.50;98.00;;;;;;5034480;28;20460;-72
2023/02/16 08:07:25;;;;;;;9.23;3.87;;;0.60;98.00;;;;;;5035769;28;20969;-71
2023/02/16 08:09:52;;;;;;;7.40;2.67;;;0.50;98.00;;;;;;5035641;28;20473;-72
2023/02/16 08:12:20;;;;;;;7.97;3.70;;;0.50;98.00;;;;;;5035578;28;20469;-72
2023/02/16 08:14:50;;;;;;;11.63;4.93;;;0.50;98.00;;;;;;5035586;28;20846;-73
2023/02/16 08:17:19;;;;;;;8.43;4.77;;;0.60;98.00;;;;;;5035601;28;20463;-73
2023/02/16 08:19:46;;;;;;;4.03;3.40;;;0.70;98.00;;;;;;5035759;28;20465;-72
2023/02/16 08:22:13;;;;;;;10.57;4.10;;;0.90;98.00;;;;;;5035290;28;20533;-71
2023/02/16 08:24:40;;;;;;;8.40;4.50;;;1.10;98.00;;;;;;5035301;28;20458;-75
2023/02/16 08:27:07;;;;;;;7.97;4.43;;;1.20;98.00;;;;;;5033919;28;20482;-71
2023/02/16 08:29:35;;;;;;;9.77;6.00;;;1.20;98.00;;;;;;5035285;28;20465;-72
2023/02/16 08:32:06;;;;;;;10.57;4.33;;;1.20;98.00;;;;;;5034927;28;20490;-73
2023/02/16 08:34:37;;;;;;;5.57;3.63;;;1.30;98.00;;;;;;5035332;28;20461;-71
2023/02/16 08:37:05;;;;;;;7.97;3.30;;;1.60;98.00;;;;;;5034810;28;20458;-74
2023/02/16 08:39:33;;;;;;;8.07;5.00;;;1.70;98.00;;;;;;5033788;28;20450;-73
2023/02/16 08:42:02;;;;;;;7.03;4.00;;;1.80;98.00;;;;;;5034889;28;20459;-73
2023/02/16 08:44:30;;;;;;;6.37;4.10;;;1.80;98.00;;;;;;5034971;28;20454;-72
2023/02/16 08:46:59;;;;;;;10.30;5.40;;;1.90;98.00;;;;;;5033989;28;20494;-74
2023/02/16 08:49:27;;;;;;;6.33;3.37;;;2.00;98.00;;;;;;5034255;28;20501;-74
2023/02/16 08:51:58;;;;;;;6.87;4.43;;;2.10;98.00;;;;;;5032428;28;20517;-72
2023/02/16 08:54:29;;;;;;;7.17;3.70;;;2.30;98.00;;;;;;5034014;28;20811;-74
2023/02/16 08:56:58;;;;;;;6.97;3.60;;;2.30;98.00;;;;;;5033140;28;20458;-72
2023/02/16 08:59:26;;;;;;;8.70;4.37;;;2.40;98.00;;;;;;5032692;28;20458;-74
2023/02/16 09:01:53;;;;;;;14.40;5.70;;;2.50;98.00;;;;;;5033688;28;20498;-73
2023/02/16 09:04:20;;;;;;;14.70;4.60;;;2.70;98.00;;;;;;5033782;28;20982;-75
2023/02/16 09:06:49;;;;;;;7.97;4.33;;;2.90;98.00;;;;;;5033507;28;20845;-75
2023/02/16 09:09:18;;;;;;;19.43;5.67;;;2.90;98.00;;;;;;5033449;28;20952;-72
2023/02/16 09:11:45;;;;;;;6.80;3.83;;;3.10;98.00;;;;;;5033328;28;20972;-71
2023/02/16 09:14:13;;;;;;;8.40;4.80;;;3.20;98.00;;;;;;5033496;28;20864;-73
2023/02/16 09:16:44;;;;;;;13.23;6.33;;;3.30;98.00;;;;;;5033628;28;20793;-72
2023/02/16 09:19:13;;;;;;;10.57;5.47;;;3.40;98.00;;;;;;5033683;28;20462;-74
2023/02/16 09:21:41;;;;;;;5.47;3.20;;;3.50;98.00;;;;;;5033662;28;20551;-71
2023/02/16 09:24:10;;;;;;;10.80;5.40;;;3.80;98.00;;;;;;5033240;28;20470;-74
2023/02/16 09:26:41;;;;;;;8.07;4.40;;;3.80;98.00;;;;;;5033478;28;20856;-73
2023/02/16 09:29:09;;;;;;;5.57;3.63;;;4.00;98.00;;;;;;5033296;28;20468;-73
2023/02/16 09:31:38;;;;;;;6.27;4.23;;;4.10;98.00;;;;;;5033834;28;20458;-73
2023/02/16 09:34:07;;;;;;;9.50;4.27;;;4.20;98.00;;;;;;5032993;28;20465;-75
2023/02/16 09:36:35;;;;;;;4.87;3.43;;;4.40;98.00;;;;;;5032895;28;20469;-73
2023/02/16 09:39:02;;;;;;;7.30;3.20;;;4.60;98.00;;;;;;5033020;28;20465;-72
2023/02/16 09:42:05;;;;;;;5.50;4.03;;;4.80;98.00;;;;;;5033131;28;20983;-74
2023/02/16 09:44:47;;;;;;;6.20;3.70;;;5.00;98.00;;;;;;5032683;28;20469;-75
2023/02/16 09:47:22;;;;;;;6.00;3.70;;;5.20;98.00;;;;;;5032652;28;20493;-75
2023/02/16 09:49:50;;;;;;;7.10;3.90;;;5.30;98.00;;;;;;5032744;28;20956;-72
2023/02/16 09:52:23;;;;;;;8.73;4.00;;;5.50;98.00;;;;;;5032465;28;20870;-73
2023/02/16 09:54:53;;;;;;;7.93;4.27;;;5.70;98.00;;;;;;5031559;28;20457;-73
2023/02/16 09:57:33;;;;;;;10.50;4.33;;;6.00;98.00;;;;;;5032816;28;20457;-72
2023/02/16 10:00:07;;;;;;;11.23;4.50;;;6.20;98.00;;;;;;5031607;28;20462;-74
2023/02/16 10:02:42;;;;;;;8.67;4.60;;;6.40;98.00;;;;;;5032756;28;20466;-73
2023/02/16 10:05:19;;;;;;;7.90;3.60;;;6.70;98.00;;;;;;5032613;28;20460;-72
2023/02/16 10:08:03;;;;;;;10.53;4.10;;;6.80;98.00;;;;;;5032303;28;20493;-74
2023/02/16 10:10:37;;;;;;;8.10;4.17;;;7.00;98.00;;;;;;5030962;28;20469;-73
2023/02/16 10:13:22;;;;;;;13.60;4.50;;;7.20;98.00;;;;;;5032446;28;20466;-73
2023/02/16 10:15:51;;;;;;;8.90;3.93;;;7.40;98.00;;;;;;5032526;28;20487;-72
2023/02/16 10:18:25;;;;;;;8.60;4.40;;;7.70;98.00;;;;;;5031520;28;20454;-72
2023/02/16 10:20:56;;;;;;;9.70;4.80;;;7.90;98.00;;;;;;5032874;28;20464;-74
2023/02/16 10:23:34;;;;;;;14.20;4.63;;;8.10;98.00;;;;;;5032440;28;20949;-74
2023/02/16 10:26:11;;;;;;;7.80;3.60;;;8.30;98.00;;;;;;5032332;28;20462;-75
2023/02/16 10:28:45;;;;;;;9.63;4.30;;;8.50;98.00;;;;;;5032329;28;20492;-75
2023/02/16 10:31:16;;;;;;;8.93;4.10;;;8.70;98.00;;;;;;5032148;28;20454;-74
2023/02/16 10:33:45;;;;;;;11.40;4.00;;;8.90;98.00;;;;;;5032212;28;20462;-75
2023/02/16 10:36:35;;;;;;;6.97;3.80;;;9.00;98.00;;;;;;5031954;28;20490;-75
2023/02/16 10:39:09;;;;;;;8.60;4.67;;;9.20;98.00;;;;;;5031984;28;20991;-75
2023/02/16 10:41:40;;;;;;;6.47;3.87;;;9.40;98.00;;;;;;5032096;28;20473;-75
2023/02/16 10:44:15;;;;;;;5.30;3.07;;;9.70;98.00;;;;;;5031953;28;20458;-74
2023/02/16 10:46:47;;;;;;;11.40;4.67;;;9.80;98.00;;;;;;5031788;28;20461;-73
2023/02/16 10:49:17;;;;;;;13.07;4.27;;;9.90;98.00;;;;;;5031827;28;20598;-74
2023/02/16 10:51:49;;;;;;;21.00;5.00;;;10.00;98.00;;;;;;5031731;28;20464;-73
2023/02/16 10:54:22;;;;;;;12.83;4.40;;;10.10;98.00;;;;;;5032064;28;20460;-73
2023/02/16 10:56:56;;;;;;;7.87;4.07;;;10.30;98.00;;;;;;5031741;28;20466;-73
2023/02/16 10:59:30;;;;;;;10.50;5.10;;;10.50;98.00;;;;;;5031578;28;20450;-74
2023/02/16 11:01:59;;;;;;;7.53;3.83;;;10.70;98.00;;;;;;5031521;28;20952;-74
2023/02/16 11:04:38;;;;;;;8.80;4.53;;;10.80;98.00;;;;;;5031585;28;20964;-73
2023/02/16 11:07:09;;;;;;;10.53;4.80;;;11.00;98.00;;;;;;5031304;28;20850;-74
2023/02/16 11:09:37;;;;;;;13.70;4.70;;;11.30;98.00;;;;;;5031199;28;20471;-74
2023/02/16 11:12:17;;;;;;;8.77;4.43;;;11.60;98.00;;;;;;5031395;28;20836;-73
2023/02/16 11:14:51;;;;;;;9.23;4.97;;;11.80;98.00;;;;;;5031408;28;20970;-74
2023/02/16 11:17:21;;;;;;;11.10;4.57;;;12.10;98.00;;;;;;5031648;28;20467;-74
2023/02/16 11:19:53;;;;;;;9.83;4.30;;;12.40;98.00;;;;;;5031468;28;20462;-74
2023/02/16 11:22:41;;;;;;;9.67;3.73;;;12.80;97.80;;;;;;5031154;28;20466;-75
2023/02/16 11:25:23;;;;;;;8.60;3.80;;;13.00;95.80;;;;;;5026669;28;20548;-73
2023/02/16 11:27:53;;;;;;;10.63;4.53;;;13.40;96.00;;;;;;5031744;28;20486;-74
2023/02/16 11:30:31;;;;;;;8.90;3.80;;;13.70;93.20;;;;;;5031997;28;20468;-74
2023/02/16 11:33:01;;;;;;;8.90;4.30;;;14.00;91.80;;;;;;5031469;28;20454;-75
2023/02/16 11:35:45;;;;;;;7.10;3.77;;;14.30;92.50;;;;;;5031671;28;20510;-74
2023/02/16 11:38:30;;;;;;;6.27;3.60;;;14.60;91.30;;;;;;5031493;28;20530;-73
2023/02/16 11:41:00;;;;;;;7.90;4.50;;;15.00;92.40;;;;;;5035026;28;20466;-74
2023/02/16 11:43:31;;;;;;;7.30;3.73;;;15.30;89.00;;;;;;5035191;28;20469;-74
2023/02/16 11:46:02;;;;;;;8.20;3.87;;;15.60;88.30;;;;;;5031287;28;20460;-73
2023/02/16 11:48:31;;;;;;;9.10;3.77;;;15.90;86.70;;;;;;5031420;28;20497;-75
2023/02/16 11:51:01;;;;;;;5.17;3.00;;;16.30;87.10;;;;;;5031865;28;20469;-74
2023/02/16 11:53:31;;;;;;;7.23;3.30;;;16.50;83.10;;;;;;5031553;28;20458;-74
2023/02/16 11:56:22;;;;;;;5.73;3.30;;;16.50;81.60;;;;;;5031432;28;20461;-76
2023/02/16 11:59:05;;;;;;;7.37;3.63;;;16.70;81.90;;;;;;5031653;28;20523;-73
2023/02/16 12:02:08;;;;;;;5.57;3.53;;;17.00;80.90;;;;;;5031559;28;21016;-75
2023/02/16 12:04:50;;;;;;;7.40;2.90;;;17.20;81.00;;;;;;4995762;28;20477;-77
2023/02/16 12:07:28;;;;;;;7.07;3.47;;;17.60;79.00;;;;;;5031331;28;20548;-76
2023/02/16 12:10:03;;;;;;;3.90;2.83;;;17.50;77.20;;;;;;5030463;28;20458;-74
2023/02/16 12:12:37;;;;;;;5.90;2.90;;;17.70;78.20;;;;;;5031548;28;20481;-74
2023/02/16 12:15:17;;;;;;;7.33;3.37;;;17.60;77.50;;;;;;5031695;28;20450;-76
2023/02/16 12:18:05;;;;;;;6.57;3.17;;;17.70;77.50;;;;;;5030858;28;20470;-76
2023/02/16 12:20:48;;;;;;;9.77;3.10;;;17.80;78.00;;;;;;5031781;28;20466;-74
2023/02/16 12:23:31;;;;;;;5.03;3.10;;;18.00;78.50;;;;;;5031374;28;20458;-74
2023/02/16 12:26:14;;;;;;;8.17;4.17;;;18.00;77.40;;;;;;5030892;28;20466;-75
2023/02/16 12:28:49;;;;;;;8.27;3.20;;;18.10;76.00;;;;;;5031367;28;20500;-75
2023/02/16 12:31:25;;;;;;;6.67;3.73;;;18.20;77.20;;;;;;5031456;28;20541;-77
2023/02/16 12:34:03;;;;;;;7.60;3.83;;;18.60;75.70;;;;;;5034844;28;20462;-76
2023/02/16 12:36:46;;;;;;;5.60;3.43;;;18.70;75.90;;;;;;5035243;28;20458;-76
2023/02/16 12:39:20;;;;;;;9.10;3.70;;;18.80;77.00;;;;;;5035077;28;20520;-74
2023/02/16 12:42:02;;;;;;;6.23;3.73;;;18.90;76.00;;;;;;5034893;28;20816;-71
2023/02/16 12:44:35;;;;;;;9.40;4.20;;;19.00;75.60;;;;;;5034939;28;20459;-70
2023/02/16 12:47:07;;;;;;;7.93;4.07;;;19.10;76.00;;;;;;5033520;28;20489;-74
2023/02/16 12:49:45;;;;;;;7.00;3.53;;;19.20;75.30;;;;;;5034813;28;20800;-73
2023/02/16 12:52:29;;;;;;;7.20;3.80;;;18.70;75.20;;;;;;5034350;28;20524;-73
2023/02/16 12:55:09;;;;;;;7.10;3.60;;;18.40;75.50;;;;;;5034656;28;20466;-73
2023/02/16 12:57:40;;;;;;;8.80;3.87;;;18.30;76.30;;;;;;5034818;28;20469;-76
2023/02/16 13:00:18;;;;;;;5.23;3.20;;;18.20;77.30;;;;;;5034700;28;20481;-65
2023/02/16 13:02:50;;;;;;;8.37;3.30;;;18.20;86.30;;;;;;5034721;28;20451;-65
2023/02/16 13:05:24;;;;;;;4.67;2.70;;;18.10;84.10;;;;;;5034715;28;20549;-65
2023/02/16 13:07:58;;;;;;;4.97;3.30;;;18.00;82.20;;;;;;5034559;28;20478;-77
2023/02/16 13:10:33;;;;;;;10.83;3.80;;;18.00;78.70;;;;;;5034473;28;20470;-77
2023/02/16 13:13:03;;;;;;;6.93;3.57;;;17.80;77.30;;;;;;5034613;28;20463;-77
2023/02/16 13:15:35;;;;;;;6.07;3.27;;;17.60;78.30;;;;;;5034579;28;20840;-77
2023/02/16 13:18:05;;;;;;;8.50;3.70;;;17.60;79.30;;;;;;5034322;28;20458;-77
2023/02/16 13:20:35;;;;;;;7.23;3.40;;;17.80;78.70;;;;;;5033712;28;20654;-77
2023/02/16 13:23:32;;;;;;;9.27;3.27;;;18.30;79.90;;;;;;5033304;28;20494;-76
2023/02/16 13:26:20;;;;;;;8.23;3.40;;;18.70;77.60;;;;;;5021069;28;20474;-77
2023/02/16 13:29:07;;;;;;;8.47;3.20;;;19.10;76.30;;;;;;5033131;28;20486;-77
2023/02/16 13:31:47;;;;;;;7.53;3.37;;;19.40;74.80;;;;;;4999981;28;20488;-77
2023/02/16 13:34:37;;;;;;;10.83;3.87;;;19.60;73.80;;;;;;5032913;28;20465;-77
2023/02/16 13:37:27;;;;;;;7.33;3.83;;;19.80;74.20;;;;;;5033094;28;20910;-77
2023/02/16 13:40:16;;;;;;;6.40;3.30;;;20.20;73.90;;;;;;5033314;28;20459;-77
2023/02/16 13:43:05;;;;;;;11.83;4.20;;;20.40;74.10;;;;;;5022100;28;20471;-77
2023/02/16 13:45:37;;;;;;;7.30;3.80;;;20.10;74.60;;;;;;5032864;28;20982;-76
2023/02/16 13:48:15;;;;;;;8.13;3.77;;;20.10;73.80;;;;;;5033210;28;20867;-76
2023/02/16 13:50:45;;;;;;;9.77;4.83;;;19.50;74.60;;;;;;5033288;28;20557;-77
2023/02/16 13:53:20;;;;;;;8.80;3.63;;;18.80;75.80;;;;;;5033462;28;20491;-77
2023/02/16 13:55:51;;;;;;;4.97;3.03;;;18.40;76.30;;;;;;5036998;28;20557;-77
2023/02/16 13:58:31;;;;;;;8.27;3.70;;;18.20;77.20;;;;;;5036887;28;20820;-76
2023/02/16 14:01:19;;;;;;;7.43;3.77;;;18.10;78.00;;;;;;5035782;28;20466;-77